Time;durP1;ratioP1;P1;durP2;ratioP2;P2;SDS_P1;SDS_P2;PMS_P1;PMS_P2;Temp;Humidity;BMP_temperature;BMP_pressure;BME280_temperature;BME280_humidity;BME280_pressure;Samples;Min_cycle;Max_cycle;Signal;HPM_P1;HPM_P2
2022/11/28 00:01:28;;;;;;;17.27;8.80;;;;;;;6.27;100.00;100720.34;5096980;28;20050;-66
2022/11/28 00:03:55;;;;;;;25.87;10.40;;;;;;;6.21;100.00;100732.22;5093100;28;20052;-66
2022/11/28 00:06:22;;;;;;;16.83;8.65;;;;;;;6.24;100.00;100728.47;5096330;28;20497;-66
2022/11/28 00:08:49;;;;;;;21.13;10.35;;;;;;;6.33;100.00;100725.94;5089403;28;20489;-66
2022/11/28 00:11:17;;;;;;;19.00;9.50;;;;;;;6.19;100.00;100720.97;5097067;28;20044;-66
2022/11/28 00:13:45;;;;;;;22.88;9.55;;;;;;;6.24;100.00;100718.81;5092500;28;20044;-66
2022/11/28 00:16:16;;;;;;;21.13;9.55;;;;;;;6.28;100.00;100724.66;5096777;28;20044;-66
2022/11/28 00:18:43;;;;;;;16.58;9.30;;;;;;;6.17;100.00;100708.88;5092280;28;20036;-66
2022/11/28 00:21:12;;;;;;;18.20;9.40;;;;;;;6.16;100.00;100708.03;5096639;28;20101;-66
2022/11/28 00:23:39;;;;;;;20.88;9.32;;;;;;;6.14;100.00;100710.81;5092264;28;20040;-66
2022/11/28 00:26:11;;;;;;;19.48;9.98;;;;;;;6.18;100.00;100708.75;5093478;28;20097;-66
2022/11/28 00:28:38;;;;;;;21.02;9.32;;;;;;;6.26;100.00;100710.78;5096450;28;20448;-66
2022/11/28 00:31:05;;;;;;;21.30;9.32;;;;;;;6.24;100.00;100696.88;5091995;28;20048;-66
2022/11/28 00:33:32;;;;;;;16.73;9.00;;;;;;;6.14;100.00;100700.25;5096495;28;20485;-66
2022/11/28 00:36:01;;;;;;;18.75;9.68;;;;;;;6.25;100.00;100698.56;5091747;28;20060;-66
2022/11/28 00:38:29;;;;;;;19.65;8.93;;;;;;;6.22;100.00;100702.28;5096340;28;20055;-66
2022/11/28 00:41:14;;;;;;;18.67;9.02;;;;;;;6.18;100.00;100685.03;5088843;28;20044;-64
2022/11/28 00:43:42;;;;;;;22.77;9.30;;;;;;;6.13;100.00;100679.31;5095030;28;20044;-64
2022/11/28 00:46:10;;;;;;;18.38;9.10;;;;;;;6.10;100.00;100677.78;5091628;28;20493;-65
2022/11/28 00:48:36;;;;;;;18.35;9.25;;;;;;;6.17;100.00;100669.38;5096062;28;20044;-65
2022/11/28 00:51:08;;;;;;;17.73;8.90;;;;;;;6.13;100.00;100667.00;5092034;28;20044;-65
2022/11/28 00:53:35;;;;;;;19.35;8.77;;;;;;;6.18;100.00;100676.31;5096291;28;20052;-65
2022/11/28 00:56:04;;;;;;;23.25;9.27;;;;;;;6.14;100.00;100659.94;5091848;28;20048;-65
2022/11/28 00:58:33;;;;;;;25.20;9.98;;;;;;;6.17;100.00;100657.06;5092270;28;20428;-65
2022/11/28 01:01:07;;;;;;;19.60;9.15;;;;;;;6.26;100.00;100648.38;5095009;28;20482;-64
2022/11/28 01:03:34;;;;;;;21.70;8.80;;;;;;;6.07;100.00;100641.16;5091634;28;20052;-64
2022/11/28 01:06:01;;;;;;;18.17;8.70;;;;;;;6.07;100.00;100653.50;5095427;28;20105;-65
2022/11/28 01:08:28;;;;;;;25.05;9.23;;;;;;;6.11;100.00;100634.69;5090291;28;20489;-65
2022/11/28 01:10:55;;;;;;;18.75;9.93;;;;;;;6.13;100.00;100647.72;5096073;28;20056;-64
2022/11/28 01:13:21;;;;;;;22.38;9.80;;;;;;;6.06;100.00;100639.50;5091392;28;20047;-64
2022/11/28 01:15:48;;;;;;;18.92;9.65;;;;;;;6.13;100.00;100640.66;5092065;28;20044;-64
2022/11/28 01:18:15;;;;;;;22.52;9.65;;;;;;;6.21;100.00;100634.75;5095490;28;20119;-65
2022/11/28 01:20:41;;;;;;;21.90;9.40;;;;;;;6.06;100.00;100623.69;5091095;28;20048;-65
2022/11/28 01:23:08;;;;;;;21.42;9.30;;;;;;;6.04;100.00;100627.41;5095752;28;20075;-64
2022/11/28 01:25:35;;;;;;;21.08;9.13;;;;;;;5.93;100.00;100642.28;5090960;28;20071;-65
2022/11/28 01:28:02;;;;;;;17.08;9.10;;;;;;;6.12;100.00;100641.63;5095393;28;20397;-64
2022/11/28 01:30:29;;;;;;;25.58;10.23;;;;;;;6.08;100.00;100663.09;5086149;28;20444;-65
2022/11/28 01:32:55;;;;;;;24.25;9.70;;;;;;;6.06;100.00;100646.56;5095413;28;20082;-65
2022/11/28 01:35:22;;;;;;;20.50;9.52;;;;;;;6.07;100.00;100630.63;5090976;28;20056;-65
2022/11/28 01:37:49;;;;;;;19.13;9.48;;;;;;;6.03;100.00;100645.00;5095098;28;20051;-65
2022/11/28 01:40:16;;;;;;;21.15;9.65;;;;;;;6.09;100.00;100639.25;5089876;28;20101;-65
2022/11/28 01:42:42;;;;;;;19.52;9.80;;;;;;;6.17;100.00;100635.97;5095191;28;20044;-65
2022/11/28 01:45:14;;;;;;;22.40;10.35;;;;;;;6.20;100.00;100637.50;5090502;28;20668;-65
2022/11/28 01:47:42;;;;;;;19.92;9.73;;;;;;;6.15;100.00;100627.38;5091631;28;20040;-65
2022/11/28 01:50:11;;;;;;;21.90;10.27;;;;;;;6.09;100.00;100631.34;5076539;28;20447;-66
2022/11/28 01:52:41;;;;;;;22.08;10.25;;;;;;;6.18;100.00;100632.38;5090643;28;20105;-65
2022/11/28 01:55:11;;;;;;;24.50;9.88;;;;;;;6.25;100.00;100632.69;5110542;28;20074;-65
2022/11/28 01:57:38;;;;;;;25.63;10.45;;;;;;;6.35;100.00;100630.97;5090494;28;20048;-65
2022/11/28 02:00:10;;;;;;;21.58;10.23;;;;;;;6.27;100.00;100617.59;5094622;28;20055;-65
2022/11/28 02:02:57;;;;;;;21.15;9.70;;;;;;;6.36;100.00;100603.63;5103807;27;20379;-67
2022/11/28 02:05:24;;;;;;;22.73;10.02;;;;;;;6.28;100.00;100603.47;5110707;28;20105;-64
2022/11/28 02:07:51;;;;;;;20.00;10.02;;;;;;;6.28;100.00;100596.41;5108352;28;20284;-66
2022/11/28 02:10:25;;;;;;;20.73;9.43;;;;;;;6.20;100.00;100605.91;5109466;28;20044;-65
2022/11/28 02:13:08;;;;;;;20.48;9.77;;;;;;;6.18;100.00;100592.03;5107519;28;20130;-65
2022/11/28 02:19:13;;;;;;;22.33;9.88;;;;;;;6.23;100.00;100605.66;5082704;28;20348;-65
2022/11/28 02:21:51;;;;;;;20.15;9.52;;;;;;;6.20;100.00;100619.06;5090276;28;20087;-64
2022/11/28 02:24:38;;;;;;;28.83;10.75;;;;;;;6.14;100.00;100613.34;5086096;28;20232;-65
2022/11/28 02:27:19;;;;;;;21.85;10.27;;;;;;;6.20;100.00;100611.16;5090922;28;20050;-65
2022/11/28 02:30:26;;;;;;;21.03;10.07;;;;;;;6.10;100.00;100606.69;5085462;28;20528;-64
2022/11/28 02:33:11;;;;;;;25.05;11.38;;;;;;;6.23;100.00;100624.09;5090352;28;20052;-64
2022/11/28 02:36:02;;;;;;;23.23;10.82;;;;;;;6.21;100.00;100626.84;5082685;28;20048;-64
2022/11/28 02:38:40;;;;;;;19.77;10.40;;;;;;;6.30;100.00;100633.97;5088953;28;20041;-64
2022/11/28 02:41:21;;;;;;;19.80;10.35;;;;;;;6.21;100.00;100623.38;5085897;28;20044;-64
2022/11/28 02:43:59;;;;;;;23.55;11.18;;;;;;;6.25;100.00;100616.88;5090467;28;20097;-66
2022/11/28 02:46:42;;;;;;;21.67;10.60;;;;;;;6.13;100.00;100606.44;5085774;28;20481;-64
2022/11/28 02:49:35;;;;;;;22.55;10.82;;;;;;;6.18;100.00;100610.47;5090083;28;20044;-65
2022/11/28 02:52:11;;;;;;;23.73;10.43;;;;;;;6.17;100.00;100607.00;5082206;28;20048;-65
2022/11/28 02:54:40;;;;;;;22.90;10.88;;;;;;;6.06;100.00;100607.91;5088879;28;20045;-65
2022/11/28 02:57:07;;;;;;;20.02;11.07;;;;;;;6.07;100.00;100603.47;5085346;28;20670;-65
2022/11/28 02:59:40;;;;;;;25.00;10.90;;;;;;;6.08;100.00;100602.50;5088747;28;20044;-65
2022/11/28 03:02:27;;;;;;;25.92;10.93;;;;;;;6.12;100.00;100588.13;5085341;28;20234;-65
2022/11/28 03:05:22;;;;;;;19.85;10.80;;;;;;;6.14;100.00;100589.63;5085987;28;20123;-66
2022/11/28 03:08:04;;;;;;;20.85;10.55;;;;;;;6.11;100.00;100579.38;5084332;28;20043;-65
2022/11/28 03:13:55;;;;;;;27.58;10.85;;;;;;;6.05;100.00;100585.16;5111272;27;20738;-65
2022/11/28 03:16:38;;;;;;;21.77;11.02;;;;;;;6.10;100.00;100590.88;5110328;28;20064;-65
2022/11/28 03:19:24;;;;;;;24.95;11.15;;;;;;;6.08;100.00;100586.72;5106644;28;20058;-65
2022/11/28 03:22:03;;;;;;;24.15;11.02;;;;;;;6.13;100.00;100581.88;5110937;28;20040;-65
2022/11/28 03:24:45;;;;;;;24.33;11.40;;;;;;;6.07;100.00;100583.22;5106629;28;20059;-65
2022/11/28 03:27:21;;;;;;;27.63;11.68;;;;;;;6.03;100.00;100591.53;5107352;28;20079;-64
2022/11/28 03:29:54;;;;;;;24.50;11.38;;;;;;;6.06;100.00;100583.38;5110772;28;20108;-65
2022/11/28 03:32:26;;;;;;;27.48;10.90;;;;;;;6.18;100.00;100584.13;5106367;28;20040;-65
2022/11/28 03:34:59;;;;;;;22.38;11.40;;;;;;;6.27;100.00;100588.63;5110914;28;20513;-65
2022/11/28 03:37:31;;;;;;;23.10;11.15;;;;;;;6.18;100.00;100592.03;5105929;28;20436;-65
2022/11/28 03:40:01;;;;;;;24.85;11.30;;;;;;;6.12;100.00;100575.78;5110798;28;20058;-65
2022/11/28 03:42:31;;;;;;;23.67;11.65;;;;;;;6.14;100.00;100591.44;5102659;28;20069;-64
2022/11/28 03:45:06;;;;;;;22.48;11.30;;;;;;;6.24;100.00;100575.69;5109529;28;20517;-65
2022/11/28 03:47:39;;;;;;;24.80;11.40;;;;;;;6.20;100.00;100577.75;5105999;28;20136;-65
2022/11/28 03:50:14;;;;;;;23.48;11.05;;;;;;;6.26;100.00;100573.78;5110572;28;20544;-65
2022/11/28 03:52:48;;;;;;;23.75;11.52;;;;;;;6.09;100.00;100560.25;5104552;28;20038;-65
2022/11/28 03:55:21;;;;;;;25.85;11.50;;;;;;;6.21;100.00;100568.91;5110502;28;20536;-64
2022/11/28 03:57:57;;;;;;;23.55;11.93;;;;;;;6.10;100.00;100555.81;5102535;28;20040;-64
2022/11/28 04:00:24;;;;;;;29.05;12.23;;;;;;;6.19;100.00;100562.94;5109863;28;20428;-64
2022/11/28 04:03:21;;;;;;;23.65;12.18;;;;;;;6.08;100.00;100571.72;5106207;28;20123;-64
2022/11/28 04:05:59;;;;;;;22.88;12.18;;;;;;;6.02;100.00;100571.41;5109337;28;20048;-65
2022/11/28 04:08:31;;;;;;;23.33;10.90;;;;;;;6.14;100.00;100573.84;5105350;28;20055;-65
2022/11/28 04:11:07;;;;;;;23.88;11.52;;;;;;;6.10;100.00;100569.81;5109597;28;20048;-65
2022/11/28 04:13:56;;;;;;;25.10;12.13;;;;;;;6.13;100.00;100572.19;5101981;28;20050;-64
2022/11/28 04:16:35;;;;;;;24.02;11.48;;;;;;;6.02;100.00;100572.25;5109346;28;20054;-64
2022/11/28 04:19:12;;;;;;;22.45;11.55;;;;;;;6.08;100.00;100576.19;5105195;28;20048;-64
2022/11/28 04:21:56;;;;;;;24.45;11.50;;;;;;;6.10;100.00;100574.25;5109555;28;20032;-64
2022/11/28 04:24:28;;;;;;;24.05;11.93;;;;;;;6.03;100.00;100573.91;5093692;28;20047;-64
2022/11/28 04:27:00;;;;;;;19.88;10.60;;;;;;;6.05;100.00;100573.78;5096392;28;20059;-63
2022/11/28 04:29:33;;;;;;;21.52;11.50;;;;;;;6.13;100.00;100577.44;5088199;28;20040;-64
2022/11/28 04:32:02;;;;;;;25.63;11.15;;;;;;;6.12;100.00;100586.31;5096131;28;20044;-64
2022/11/28 04:34:33;;;;;;;23.95;12.07;;;;;;;6.08;100.00;100584.91;5095723;28;20485;-65
2022/11/28 04:37:03;;;;;;;22.75;11.75;;;;;;;6.16;100.00;100589.50;5091493;28;20054;-65
2022/11/28 04:39:36;;;;;;;28.15;13.07;;;;;;;6.27;100.00;100593.88;5095729;28;20054;-65
2022/11/28 04:42:12;;;;;;;23.13;12.00;;;;;;;6.09;100.00;100599.75;5091459;28;20082;-65
2022/11/28 04:44:50;;;;;;;25.85;12.27;;;;;;;6.13;100.00;100592.41;5095531;28;20078;-65
2022/11/28 04:47:17;;;;;;;24.80;12.05;;;;;;;6.10;100.00;100598.78;5089927;28;20046;-65
2022/11/28 04:49:44;;;;;;;24.08;12.15;;;;;;;6.17;100.00;100599.09;5095355;28;20444;-65
2022/11/28 04:52:23;;;;;;;24.15;11.70;;;;;;;6.04;100.00;100588.75;5089814;28;20068;-65
2022/11/28 04:55:05;;;;;;;24.70;11.80;;;;;;;6.01;100.00;100593.44;5095824;28;20489;-65
2022/11/28 04:57:42;;;;;;;29.13;11.95;;;;;;;6.02;100.00;100593.31;5090980;28;20119;-65
2022/11/28 05:00:14;;;;;;;22.75;11.75;;;;;;;6.01;100.00;100599.53;5095234;28;20044;-65
2022/11/28 05:02:43;;;;;;;26.08;12.18;;;;;;;6.04;100.00;100594.03;5087583;28;20101;-65
2022/11/28 05:05:14;;;;;;;27.35;12.07;;;;;;;5.96;100.00;100596.44;5095214;28;20169;-65
2022/11/28 05:07:41;;;;;;;25.00;12.73;;;;;;;6.06;100.00;100600.00;5090740;28;20048;-65
2022/11/28 05:10:10;;;;;;;24.52;12.25;;;;;;;6.06;100.00;100594.72;5095144;28;20040;-65
2022/11/28 05:12:37;;;;;;;24.27;12.32;;;;;;;6.11;100.00;100592.56;5090450;28;20392;-65
2022/11/28 05:15:05;;;;;;;25.55;13.05;;;;;;;6.11;100.00;100597.81;5095081;28;20071;-65
2022/11/28 05:17:31;;;;;;;31.20;13.57;;;;;;;6.07;100.00;100595.56;5087183;28;20040;-66
2022/11/28 05:19:59;;;;;;;24.35;12.50;;;;;;;6.08;100.00;100602.50;5095098;28;20051;-65
2022/11/28 05:22:26;;;;;;;28.55;12.88;;;;;;;6.10;100.00;100595.31;5094899;28;20032;-65
2022/11/28 05:24:53;;;;;;;27.25;12.85;;;;;;;6.10;100.00;100596.13;5090653;28;20101;-65
2022/11/28 05:27:19;;;;;;;25.58;12.60;;;;;;;6.12;100.00;100582.84;5094939;28;20047;-65
2022/11/28 05:29:46;;;;;;;23.10;12.35;;;;;;;6.11;100.00;100587.28;5090565;28;20047;-65
2022/11/28 05:32:17;;;;;;;28.60;13.70;;;;;;;5.96;100.00;100599.09;5094011;28;20040;-65
2022/11/28 05:34:44;;;;;;;24.50;11.70;;;;;;;6.00;100.00;100597.03;5086193;28;20037;-65
2022/11/28 05:37:11;;;;;;;27.00;13.45;;;;;;;6.05;100.00;100600.13;5094579;28;20044;-65
2022/11/28 05:39:37;;;;;;;25.63;12.60;;;;;;;6.03;100.00;100594.16;5094894;28;20051;-66
2022/11/28 05:42:04;;;;;;;24.50;12.30;;;;;;;6.10;100.00;100590.88;5090405;28;20086;-65
2022/11/28 05:44:31;;;;;;;23.38;12.50;;;;;;;6.05;100.00;100590.41;5094406;28;20550;-65
2022/11/28 05:46:58;;;;;;;23.13;12.20;;;;;;;5.97;100.00;100590.25;5089919;28;20056;-65
2022/11/28 05:49:25;;;;;;;26.05;12.93;;;;;;;6.07;100.00;100587.66;5092806;28;20493;-65
2022/11/28 05:51:51;;;;;;;25.67;13.02;;;;;;;6.04;100.00;100591.41;5086533;28;20043;-65
2022/11/28 05:54:18;;;;;;;25.20;12.52;;;;;;;6.12;100.00;100590.75;5093684;28;20382;-66
2022/11/28 05:56:45;;;;;;;22.80;12.82;;;;;;;6.11;100.00;100594.31;5093168;28;20052;-65
2022/11/28 05:59:12;;;;;;;27.63;13.20;;;;;;;6.23;100.00;100589.84;5091782;28;20032;-65
2022/11/28 06:01:39;;;;;;;25.75;12.82;;;;;;;6.13;100.00;100585.34;5094001;28;20064;-65
2022/11/28 06:04:06;;;;;;;30.92;12.93;;;;;;;6.12;100.00;100582.84;5072407;28;20060;-65
2022/11/28 06:06:35;;;;;;;27.67;13.20;;;;;;;6.06;100.00;100575.47;5093635;28;20429;-65
2022/11/28 06:09:04;;;;;;;25.92;12.88;;;;;;;6.11;100.00;100565.34;5086400;28;20067;-64
2022/11/28 06:11:33;;;;;;;24.52;12.93;;;;;;;6.20;100.00;100571.66;5093806;28;20072;-64
2022/11/28 06:14:01;;;;;;;23.27;12.32;;;;;;;6.18;100.00;100568.31;5089584;28;20044;-66
2022/11/28 06:16:30;;;;;;;27.33;13.50;;;;;;;6.23;100.00;100566.97;5092710;28;20139;-66
2022/11/28 06:18:59;;;;;;;29.77;13.40;;;;;;;6.09;100.00;100557.63;5089257;28;20051;-65
2022/11/28 06:21:27;;;;;;;26.90;12.95;;;;;;;6.12;100.00;100559.97;5094071;28;20098;-65
2022/11/28 06:23:56;;;;;;;26.77;13.30;;;;;;;6.06;100.00;100563.13;5085728;28;20443;-65
2022/11/28 06:26:25;;;;;;;27.95;14.15;;;;;;;6.09;100.00;100560.25;5093797;28;20067;-65
2022/11/28 06:28:54;;;;;;;25.67;13.75;;;;;;;5.98;100.00;100551.56;5090576;28;20044;-64
2022/11/28 06:31:24;;;;;;;27.17;13.60;;;;;;;6.01;100.00;100548.69;5093238;28;20047;-64
2022/11/28 06:33:51;;;;;;;27.38;13.75;;;;;;;6.07;100.00;100533.19;5090649;28;20067;-64
2022/11/28 06:36:18;;;;;;;27.10;13.63;;;;;;;6.04;100.00;100529.97;5092320;28;20051;-65
2022/11/28 06:38:45;;;;;;;24.30;12.98;;;;;;;5.90;100.00;100545.13;5089997;28;20044;-65
2022/11/28 06:41:16;;;;;;;25.67;13.43;;;;;;;5.88;100.00;100544.41;5089420;28;20047;-65
2022/11/28 06:43:43;;;;;;;23.85;13.32;;;;;;;5.93;100.00;100544.00;5092250;28;20405;-65
2022/11/28 06:46:12;;;;;;;23.92;13.02;;;;;;;5.99;100.00;100551.44;5087899;28;20375;-65
2022/11/28 06:48:42;;;;;;;27.10;12.82;;;;;;;5.89;100.00;100558.41;5093219;28;20054;-64
2022/11/28 06:51:10;;;;;;;28.58;13.70;;;;;;;6.02;100.00;100560.88;5088715;28;20074;-65
2022/11/28 06:53:37;;;;;;;29.40;13.43;;;;;;;6.03;100.00;100566.00;5093519;28;20536;-65
2022/11/28 06:56:06;;;;;;;26.17;13.27;;;;;;;6.03;99.87;100563.38;5088448;28;20044;-65
2022/11/28 06:58:34;;;;;;;31.95;13.95;;;;;;;6.05;100.00;100576.41;5089938;28;20058;-65
2022/11/28 07:01:06;;;;;;;24.60;13.45;;;;;;;6.06;100.00;100578.94;5092048;28;20048;-66
2022/11/28 07:03:32;;;;;;;29.42;14.00;;;;;;;6.08;100.00;100570.91;5088772;28;20047;-64
2022/11/28 07:06:01;;;;;;;24.85;13.38;;;;;;;6.16;100.00;100581.63;5092615;28;20043;-64
2022/11/28 07:08:29;;;;;;;26.48;13.25;;;;;;;6.06;100.00;100576.28;5068859;28;20040;-64
2022/11/28 07:10:57;;;;;;;25.13;13.00;;;;;;;6.00;100.00;100581.22;5093395;28;20161;-65
2022/11/28 07:13:24;;;;;;;31.58;13.18;;;;;;;6.05;99.83;100573.78;5044685;28;20534;-64
2022/11/28 07:15:51;;;;;;;27.45;13.02;;;;;;;6.11;100.00;100582.03;5068254;28;20048;-64
2022/11/28 07:18:18;;;;;;;29.95;13.40;;;;;;;5.99;100.00;100580.41;5048314;28;20051;-65
2022/11/28 07:20:44;;;;;;;28.08;13.45;;;;;;;5.99;100.00;100580.41;5051404;28;20047;-64
2022/11/28 07:23:11;;;;;;;23.98;12.38;;;;;;;6.07;100.00;100579.75;5048398;28;20052;-65
2022/11/28 07:25:38;;;;;;;25.70;13.23;;;;;;;6.08;100.00;100584.06;5053011;28;20075;-64
2022/11/28 07:28:05;;;;;;;27.45;12.88;;;;;;;6.09;100.00;100588.38;5047065;28;20044;-65
2022/11/28 07:30:31;;;;;;;28.70;13.90;;;;;;;6.14;100.00;100588.81;5045591;28;20051;-65
2022/11/28 07:32:59;;;;;;;24.08;12.77;;;;;;;6.17;100.00;100583.31;5032228;28;20067;-66
2022/11/28 07:35:25;;;;;;;22.90;12.93;;;;;;;6.24;100.00;100588.88;5063900;28;20048;-66
2022/11/28 07:37:52;;;;;;;29.33;12.57;;;;;;;6.26;99.50;100589.59;5065774;28;20060;-66
2022/11/28 07:40:21;;;;;;;22.67;12.43;;;;;;;6.24;99.84;100589.72;5061523;28;20416;-67
2022/11/28 07:42:51;;;;;;;26.85;13.00;;;;;;;6.06;100.00;100581.56;5041280;28;20050;-65
2022/11/28 07:45:18;;;;;;;28.02;12.43;;;;;;;6.04;100.00;100586.13;5035853;28;20061;-68
2022/11/28 07:47:45;;;;;;;22.75;12.82;;;;;;;6.10;100.00;100584.78;5043402;28;20494;-66
2022/11/28 07:50:11;;;;;;;27.65;12.70;;;;;;;6.17;100.00;100587.72;5046709;28;20090;-65
2022/11/28 07:52:38;;;;;;;24.48;13.45;;;;;;;6.22;100.00;100578.47;5055473;28;20537;-64
2022/11/28 07:55:05;;;;;;;22.83;11.88;;;;;;;6.06;99.93;100578.94;5067478;28;20454;-65
2022/11/28 07:57:32;;;;;;;23.95;11.85;;;;;;;6.08;100.00;100576.19;5042242;28;20041;-64
2022/11/28 07:59:58;;;;;;;24.33;11.95;;;;;;;6.12;100.00;100581.03;5048196;28;20044;-64
2022/11/28 08:02:25;;;;;;;25.55;11.60;;;;;;;6.18;98.79;100589.41;5050885;28;20040;-65
2022/11/28 08:04:52;;;;;;;24.73;11.50;;;;;;;6.14;99.23;100591.44;5044317;28;20044;-64
2022/11/28 08:07:21;;;;;;;24.42;12.18;;;;;;;6.10;98.76;100587.41;5055081;28;20131;-65
2022/11/28 08:09:48;;;;;;;23.35;11.68;;;;;;;6.20;98.52;100593.56;5047434;28;20302;-64
2022/11/28 08:12:14;;;;;;;23.75;11.75;;;;;;;6.22;99.44;100591.66;5076940;28;20048;-64
2022/11/28 08:14:41;;;;;;;23.42;11.82;;;;;;;6.22;99.34;100603.97;5092569;28;20052;-64
2022/11/28 08:17:08;;;;;;;23.88;12.27;;;;;;;6.22;98.76;100594.28;5074003;28;20675;-65
2022/11/28 08:19:35;;;;;;;22.85;12.27;;;;;;;6.25;98.63;100604.53;5080337;28;20044;-65
2022/11/28 08:22:01;;;;;;;25.50;12.10;;;;;;;6.18;99.17;100597.28;5091673;28;20048;-66
2022/11/28 08:24:28;;;;;;;26.27;12.65;;;;;;;6.20;99.17;100600.63;5105937;28;20101;-65
2022/11/28 08:26:55;;;;;;;27.33;11.90;;;;;;;6.27;99.04;100599.16;5089481;28;20051;-65
2022/11/28 08:29:21;;;;;;;25.02;11.93;;;;;;;6.28;99.03;100592.94;5085960;28;20056;-67
2022/11/28 08:31:48;;;;;;;24.70;11.75;;;;;;;6.32;99.40;100607.50;5082792;28;20040;-67
2022/11/28 08:34:15;;;;;;;22.55;11.27;;;;;;;6.33;98.68;100601.25;5073756;28;20047;-68
2022/11/28 08:36:42;;;;;;;25.95;11.82;;;;;;;6.32;98.64;100595.16;5091579;28;20405;-67
2022/11/28 08:39:10;;;;;;;23.83;11.70;;;;;;;6.40;99.82;100599.78;5103303;28;20136;-67
2022/11/28 08:41:56;;;;;;;24.65;11.38;;;;;;;6.42;98.72;100610.19;5090138;28;20040;-68
2022/11/28 08:44:23;;;;;;;22.13;11.27;;;;;;;6.54;97.81;100601.25;5104400;28;20043;-68
2022/11/28 08:46:50;;;;;;;24.98;12.00;;;;;;;6.40;98.97;100602.41;5089205;28;20043;-68
2022/11/28 08:49:17;;;;;;;22.52;11.35;;;;;;;6.37;98.24;100599.19;5075158;28;20048;-68
2022/11/28 08:51:44;;;;;;;28.00;11.50;;;;;;;6.47;98.96;100605.38;5100149;28;20058;-68
2022/11/28 08:54:11;;;;;;;21.48;11.50;;;;;;;6.47;98.27;100597.47;5100609;28;20057;-68
2022/11/28 08:56:37;;;;;;;23.77;12.55;;;;;;;6.44;98.86;100606.47;5079692;28;20118;-68
2022/11/28 08:59:05;;;;;;;22.73;12.05;;;;;;;6.54;98.20;100604.69;5100794;28;20047;-68
2022/11/28 09:01:33;;;;;;;22.85;11.82;;;;;;;6.54;98.01;100609.16;5090388;28;20048;-68
2022/11/28 09:04:00;;;;;;;23.58;11.75;;;;;;;6.49;98.76;100612.19;5079359;28;20040;-68
2022/11/28 09:06:26;;;;;;;21.30;11.65;;;;;;;6.51;99.08;100606.75;5097718;28;20047;-68
2022/11/28 09:08:53;;;;;;;22.02;11.07;;;;;;;6.42;97.26;100612.81;5083877;28;20047;-68
2022/11/28 09:11:22;;;;;;;20.52;11.77;;;;;;;6.44;98.09;100609.09;5091990;28;20051;-68
2022/11/28 09:13:49;;;;;;;26.33;11.88;;;;;;;6.31;98.57;100613.72;5082807;28;20045;-67
2022/11/28 09:16:16;;;;;;;24.65;11.77;;;;;;;6.32;99.89;100618.88;5088725;28;20052;-68
2022/11/28 09:18:44;;;;;;;23.35;12.32;;;;;;;6.51;100.00;100617.31;5085145;28;20078;-63
2022/11/28 09:21:13;;;;;;;24.13;13.05;;;;;;;6.49;99.84;100620.09;5107724;28;20043;-67
2022/11/28 09:23:42;;;;;;;24.70;12.60;;;;;;;6.57;99.36;100621.22;5080453;28;20066;-67
2022/11/28 09:26:12;;;;;;;25.25;12.98;;;;;;;6.54;98.38;100617.88;5080032;28;20109;-68
2022/11/28 09:28:38;;;;;;;24.60;12.80;;;;;;;6.49;98.65;100622.72;5093254;28;20126;-68
2022/11/28 09:31:06;;;;;;;25.40;12.18;;;;;;;6.58;98.90;100630.81;5104399;28;20056;-68
2022/11/28 09:33:34;;;;;;;21.75;11.98;;;;;;;6.66;98.53;100631.84;5075433;28;20614;-67
2022/11/28 09:36:11;;;;;;;23.90;12.43;;;;;;;6.67;98.49;100630.84;5090877;28;20041;-67
2022/11/28 09:38:38;;;;;;;24.27;12.25;;;;;;;6.61;98.70;100639.28;5101019;28;20119;-67
2022/11/28 09:41:44;;;;;;;23.05;11.88;;;;;;;6.67;99.12;100640.56;5094842;28;20447;-67
2022/11/28 09:44:20;;;;;;;24.65;11.70;;;;;;;6.72;98.45;100636.56;5100526;28;20119;-67
2022/11/28 09:46:51;;;;;;;24.23;12.40;;;;;;;6.75;98.33;100635.50;5086458;28;20044;-67
2022/11/28 09:49:30;;;;;;;23.52;12.70;;;;;;;6.73;98.95;100642.66;5077090;28;20146;-67
2022/11/28 09:52:25;;;;;;;25.88;13.05;;;;;;;6.70;97.98;100637.69;5080708;28;20036;-68
2022/11/28 09:55:32;;;;;;;22.27;12.32;;;;;;;6.79;99.06;100634.25;5097073;27;20082;-68
2022/11/28 09:58:07;;;;;;;22.17;11.98;;;;;;;6.90;99.49;100630.69;5081842;28;20101;-67
2022/11/28 10:00:37;;;;;;;23.27;12.63;;;;;;;6.97;99.70;100638.88;5076435;28;20036;-67
2022/11/28 10:03:15;;;;;;;26.27;12.75;;;;;;;6.88;98.72;100630.81;5082373;28;20753;-67
2022/11/28 10:08:51;;;;;;;23.17;12.30;;;;;;;6.81;100.00;100627.03;5105642;27;20891;-67
2022/11/28 10:11:33;;;;;;;25.38;12.32;;;;;;;6.79;100.00;100633.41;5110825;28;20044;-66
2022/11/28 10:14:40;;;;;;;29.60;12.98;;;;;;;6.81;100.00;100634.13;5102356;28;20055;-67
2022/11/28 10:17:47;;;;;;;29.02;13.48;;;;;;;6.89;100.00;100634.28;5109959;28;20055;-67
2022/11/28 10:20:27;;;;;;;23.98;12.77;;;;;;;6.90;100.00;100626.25;5105730;28;20375;-67
2022/11/28 10:23:00;;;;;;;26.67;12.95;;;;;;;7.02;100.00;100626.13;5089239;28;20549;-66
2022/11/28 10:25:41;;;;;;;24.23;12.70;;;;;;;7.07;100.00;100630.03;5123540;27;20122;-66
2022/11/28 10:28:16;;;;;;;37.25;13.65;;;;;;;7.07;100.00;100627.41;5109770;28;20051;-67
2022/11/28 10:30:47;;;;;;;25.45;13.45;;;;;;;7.08;100.00;100623.81;5102094;28;20059;-66
2022/11/28 10:33:39;;;;;;;26.95;13.40;;;;;;;7.14;100.00;100619.78;5108359;28;20093;-66
2022/11/28 10:36:15;;;;;;;30.10;14.27;;;;;;;7.11;100.00;100622.69;5105134;28;20043;-67
2022/11/28 10:38:43;;;;;;;33.30;13.60;;;;;;;7.18;100.00;100620.34;5105679;28;20123;-66
2022/11/28 10:41:39;;;;;;;26.38;13.45;;;;;;;7.05;100.00;100624.06;5084537;28;20048;-66
2022/11/28 10:44:18;;;;;;;24.00;13.57;;;;;;;7.12;100.00;100629.66;5088471;28;20151;-67
2022/11/28 10:46:58;;;;;;;27.13;13.52;;;;;;;6.94;100.00;100621.53;5098254;28;20070;-66
2022/11/28 10:52:48;;;;;;;29.08;13.75;;;;;;;6.85;100.00;100623.16;5126371;27;20382;-67
2022/11/28 10:55:45;;;;;;;24.92;13.00;;;;;;;7.04;100.00;100618.91;5107492;28;20117;-67
2022/11/28 11:00:52;;;;;;;26.98;13.80;;;;;;;6.99;100.00;100615.88;5111199;27;20046;-67
2022/11/28 11:03:26;;;;;;;26.67;13.80;;;;;;;7.03;100.00;100617.25;5109639;28;20044;-67
2022/11/28 11:05:53;;;;;;;29.60;13.50;;;;;;;7.08;100.00;100621.16;5108307;28;20063;-67
2022/11/28 11:08:23;;;;;;;28.77;13.95;;;;;;;7.04;100.00;100621.56;5097063;28;20048;-67
2022/11/28 11:11:04;;;;;;;27.23;14.38;;;;;;;7.02;100.00;100621.72;5104441;28;20549;-67
2022/11/28 11:13:39;;;;;;;27.63;13.98;;;;;;;7.01;100.00;100619.22;5110575;28;20489;-67
2022/11/28 11:16:10;;;;;;;26.50;13.75;;;;;;;6.99;100.00;100611.41;5110802;28;20134;-67
2022/11/28 11:18:51;;;;;;;27.17;13.85;;;;;;;7.03;100.00;100615.44;5116733;28;20495;-67
2022/11/28 11:21:21;;;;;;;27.65;14.20;;;;;;;6.93;100.00;100609.34;5122189;27;20427;-67
2022/11/28 11:24:08;;;;;;;27.25;14.10;;;;;;;6.92;100.00;100618.19;5106008;28;20044;-67
2022/11/28 11:26:39;;;;;;;25.90;14.25;;;;;;;7.09;100.00;100617.56;5088364;28;20055;-68
2022/11/28 11:29:20;;;;;;;27.42;14.77;;;;;;;7.13;100.00;100612.00;5090261;28;20114;-68
2022/11/28 11:31:52;;;;;;;27.77;13.93;;;;;;;7.17;100.00;100613.41;5085567;28;20075;-68
2022/11/28 11:34:21;;;;;;;29.23;14.27;;;;;;;7.17;100.00;100614.25;5090133;28;20052;-67
2022/11/28 11:36:49;;;;;;;25.65;14.38;;;;;;;7.21;100.00;100618.28;5085396;28;20680;-67
2022/11/28 11:39:22;;;;;;;28.25;14.40;;;;;;;7.15;100.00;100610.06;5090090;28;20044;-69
2022/11/28 11:42:09;;;;;;;26.35;14.50;;;;;;;7.21;100.00;100620.91;5084677;28;20097;-67
2022/11/28 11:44:36;;;;;;;24.77;14.02;;;;;;;7.13;100.00;100615.50;5110107;28;20055;-66
2022/11/28 11:47:06;;;;;;;29.55;14.48;;;;;;;7.29;100.00;100617.59;5105279;28;20040;-66
2022/11/28 11:49:47;;;;;;;28.13;15.23;;;;;;;7.21;100.00;100617.47;5110246;28;20113;-66